createdAt,value
2022-09-15T00:01:21.859Z,14.25
2022-09-15T00:03:50.743Z,14.45
2022-09-15T00:06:21.500Z,13.38
2022-09-15T00:08:50.015Z,15.52
2022-09-15T00:11:20.540Z,14.95
2022-09-15T00:13:49.451Z,13.95
2022-09-15T00:16:19.235Z,18.30
2022-09-15T00:18:48.434Z,13.60
2022-09-15T00:21:20.470Z,15.05
2022-09-15T00:23:51.096Z,14.68
2022-09-15T00:26:21.720Z,14.60
2022-09-15T00:28:50.436Z,16.35
2022-09-15T00:31:21.306Z,14.27
2022-09-15T00:33:50.336Z,11.15
2022-09-15T00:36:19.494Z,12.55
2022-09-15T00:38:49.512Z,14.93
2022-09-15T00:41:21.085Z,13.48
2022-09-15T00:43:53.111Z,13.63
2022-09-15T00:46:23.214Z,11.82
2022-09-15T00:48:56.915Z,15.43
2022-09-15T00:51:31.720Z,12.32
2022-09-15T00:54:04.158Z,14.27
2022-09-15T00:56:35.234Z,12.20
2022-09-15T00:59:07.034Z,17.17
2022-09-15T01:01:35.916Z,13.93
2022-09-15T01:04:04.740Z,15.00
2022-09-15T01:06:37.308Z,13.95
2022-09-15T01:09:19.398Z,15.90
2022-09-15T01:11:47.919Z,12.40
2022-09-15T01:14:16.679Z,13.55
2022-09-15T01:17:10.035Z,11.02
2022-09-15T01:20:11.663Z,10.65
2022-09-15T01:22:54.083Z,13.35
2022-09-15T01:25:41.593Z,11.38
2022-09-15T01:28:26.422Z,12.57
2022-09-15T01:31:02.173Z,15.45
2022-09-15T01:33:38.811Z,15.57
2022-09-15T01:36:14.317Z,11.30
2022-09-15T01:38:52.375Z,11.68
2022-09-15T01:41:26.083Z,11.82
2022-09-15T01:44:00.614Z,12.82
2022-09-15T01:46:36.476Z,10.50
2022-09-15T01:49:08.724Z,12.63
2022-09-15T01:51:40.750Z,12.45
2022-09-15T01:54:10.229Z,14.52
2022-09-15T01:56:41.816Z,9.45
2022-09-15T01:59:10.541Z,10.80
2022-09-15T02:01:45.402Z,11.38
2022-09-15T02:04:19.457Z,13.18
2022-09-15T02:06:54.489Z,14.45
2022-09-15T02:09:26.675Z,14.38
2022-09-15T02:12:03.576Z,13.88
2022-09-15T02:14:44.160Z,13.20
2022-09-15T02:17:19.104Z,12.98
2022-09-15T02:19:51.216Z,11.35
2022-09-15T02:22:24.486Z,11.00
2022-09-15T02:24:59.108Z,13.35
2022-09-15T02:27:33.016Z,14.63
2022-09-15T02:30:06.158Z,11.60
2022-09-15T02:32:38.494Z,12.18
2022-09-15T02:35:10.194Z,9.68
2022-09-15T02:37:39.671Z,10.70
2022-09-15T02:40:09.472Z,9.80
2022-09-15T02:42:39.300Z,9.60
2022-09-15T02:45:08.859Z,12.77
2022-09-15T02:47:38.677Z,9.80
2022-09-15T02:50:08.345Z,10.32
2022-09-15T02:52:36.884Z,12.05
2022-09-15T02:55:05.921Z,10.15
2022-09-15T02:57:34.386Z,9.63
2022-09-15T03:00:16.093Z,11.18
2022-09-15T03:02:48.412Z,9.80
2022-09-15T03:05:18.443Z,11.63
2022-09-15T03:07:46.831Z,10.15
2022-09-15T03:10:16.259Z,11.77
2022-09-15T03:12:46.365Z,10.07
2022-09-15T03:15:17.683Z,8.95
2022-09-15T03:17:48.568Z,8.90
2022-09-15T03:20:18.922Z,9.85
2022-09-15T03:22:47.304Z,10.20
2022-09-15T03:25:15.937Z,8.65
2022-09-15T03:27:44.328Z,7.88
2022-09-15T03:30:13.840Z,10.40
2022-09-15T03:32:42.496Z,8.60
2022-09-15T03:35:12.363Z,8.82
2022-09-15T03:37:40.954Z,8.85
2022-09-15T03:40:11.420Z,8.75
2022-09-15T03:42:39.870Z,8.15
2022-09-15T03:45:09.197Z,12.18
2022-09-15T03:47:37.534Z,9.93
2022-09-15T03:50:06.935Z,9.80
2022-09-15T03:52:36.745Z,9.55
2022-09-15T03:55:05.525Z,9.73
2022-09-15T03:57:34.016Z,8.50
2022-09-15T04:00:02.391Z,6.25
2022-09-15T04:02:33.234Z,5.38
2022-09-15T04:05:02.376Z,5.90
2022-09-15T04:07:32.147Z,5.18
2022-09-15T04:10:02.575Z,4.88
2022-09-15T04:12:32.612Z,3.88
2022-09-15T04:15:03.136Z,3.75
2022-09-15T04:17:32.545Z,3.40
2022-09-15T04:20:01.092Z,3.35
2022-09-15T04:22:32.116Z,2.15
2022-09-15T04:25:01.910Z,2.78
2022-09-15T04:27:34.594Z,2.75
2022-09-15T04:30:03.415Z,2.78
2022-09-15T04:32:33.023Z,2.53
2022-09-15T04:35:01.381Z,2.92
2022-09-15T04:37:31.707Z,3.13
2022-09-15T04:40:02.257Z,3.00
2022-09-15T04:42:32.299Z,3.85
2022-09-15T04:45:00.718Z,4.28
2022-09-15T04:47:29.545Z,1.98
2022-09-15T04:49:57.903Z,1.88
2022-09-15T04:52:26.542Z,2.25
2022-09-15T04:54:54.935Z,2.67
2022-09-15T04:57:24.786Z,3.28
2022-09-15T04:59:53.115Z,2.03
2022-09-15T05:02:21.563Z,1.98
2022-09-15T05:04:51.678Z,1.95
2022-09-15T05:07:20.171Z,3.08
2022-09-15T05:09:48.601Z,1.90
2022-09-15T05:12:17.598Z,2.13
2022-09-15T05:14:47.327Z,2.10
2022-09-15T05:17:15.848Z,2.08
2022-09-15T05:19:44.283Z,2.15
2022-09-15T05:22:12.724Z,3.40
2022-09-15T05:24:41.096Z,3.25
2022-09-15T05:27:09.485Z,2.97
2022-09-15T05:29:38.499Z,1.90
2022-09-15T05:32:08.339Z,2.75
2022-09-15T05:34:36.755Z,1.70
2022-09-15T05:37:05.533Z,3.55
2022-09-15T05:39:34.044Z,2.05
2022-09-15T05:42:02.395Z,2.35
2022-09-15T05:44:31.688Z,1.98
2022-09-15T05:47:00.356Z,2.30
2022-09-15T05:49:30.434Z,2.63
2022-09-15T05:51:58.958Z,2.92
2022-09-15T05:54:27.950Z,1.90
2022-09-15T05:56:56.344Z,2.10
2022-09-15T05:59:24.946Z,1.60
2022-09-15T06:01:53.486Z,2.45
2022-09-15T08:35:00.840Z,2.60
2022-09-15T08:37:29.441Z,2.55
2022-09-15T08:39:57.893Z,2.13
2022-09-15T08:42:29.242Z,3.42
2022-09-15T08:45:04.192Z,3.10
2022-09-15T08:47:37.259Z,4.90
2022-09-15T08:50:15.844Z,2.00
2022-09-15T08:52:49.424Z,2.50
2022-09-15T08:55:29.209Z,2.85
2022-09-15T08:57:57.648Z,3.05
2022-09-15T09:00:26.300Z,4.93
2022-09-15T09:03:09.244Z,3.53
2022-09-15T09:05:51.003Z,3.78
2022-09-15T09:08:40.806Z,2.72
2022-09-15T09:11:22.367Z,3.28
2022-09-15T09:14:01.272Z,3.35
2022-09-15T09:16:42.456Z,2.50
2022-09-15T09:19:31.358Z,2.22
2022-09-15T09:22:08.252Z,2.38
2022-09-15T09:24:42.263Z,3.20
2022-09-15T09:27:14.333Z,3.67
2022-09-15T09:29:49.752Z,4.53
2022-09-15T09:32:22.086Z,2.45
2022-09-15T09:35:02.111Z,4.03
2022-09-15T09:37:34.884Z,2.13
2022-09-15T09:40:03.811Z,2.95
2022-09-15T09:42:37.283Z,1.90
2022-09-15T09:45:07.724Z,2.13
2022-09-15T09:47:37.640Z,2.45
2022-09-15T09:50:33.846Z,1.90
2022-09-15T09:53:19.584Z,3.53
2022-09-15T09:55:48.109Z,2.08
2022-09-15T09:58:20.821Z,3.33
2022-09-15T10:00:50.403Z,2.10
2022-09-15T10:03:21.415Z,2.35
2022-09-15T10:06:03.701Z,1.65
2022-09-15T10:08:34.199Z,1.90
2022-09-15T10:11:07.032Z,2.22
2022-09-15T10:13:36.806Z,1.95
2022-09-15T10:16:07.868Z,2.08
2022-09-15T10:18:39.128Z,3.40
2022-09-15T10:21:11.168Z,2.20
2022-09-15T10:23:41.139Z,2.80
2022-09-15T10:26:32.232Z,2.33
2022-09-15T10:29:18.024Z,3.42
2022-09-15T10:31:47.259Z,2.20
2022-09-15T10:34:37.483Z,3.33
2022-09-15T10:37:16.959Z,5.30
2022-09-15T10:39:54.444Z,4.65
2022-09-15T10:42:50.487Z,2.70
2022-09-15T10:45:26.126Z,3.05
2022-09-15T10:48:39.327Z,2.55
2022-09-15T10:51:22.896Z,2.10
2022-09-15T10:54:06.519Z,2.25
2022-09-15T10:56:42.779Z,3.47
2022-09-15T10:59:38.692Z,2.42
2022-09-15T11:02:32.423Z,3.08
2022-09-15T11:05:20.586Z,3.33
2022-09-15T11:08:02.987Z,2.63
2022-09-15T11:10:39.024Z,3.17
2022-09-15T11:13:18.391Z,2.80
2022-09-15T11:15:58.859Z,2.92
2022-09-15T11:18:48.667Z,3.67
2022-09-15T11:21:24.554Z,2.53
2022-09-15T11:24:14.477Z,4.07
2022-09-15T11:26:46.994Z,3.25
2022-09-15T11:29:24.017Z,2.67
2022-09-15T11:34:29.264Z,3.28
2022-09-15T11:37:04.376Z,4.45
2022-09-15T11:39:40.140Z,5.18
2022-09-15T11:42:12.949Z,4.57
2022-09-15T11:44:46.236Z,3.92
2022-09-15T11:47:26.042Z,4.00
2022-09-15T11:49:58.353Z,4.80
2022-09-15T11:52:41.206Z,4.30
2022-09-15T11:55:26.266Z,4.47
2022-09-15T11:58:02.588Z,3.55
2022-09-15T12:00:32.809Z,3.63
2022-09-15T12:03:15.039Z,5.45
2022-09-15T12:05:46.411Z,5.32
2022-09-15T12:08:23.831Z,5.10
2022-09-15T12:10:58.160Z,5.70
2022-09-15T12:13:28.681Z,5.97
2022-09-15T12:16:04.328Z,4.22
2022-09-15T12:18:46.892Z,3.80
2022-09-15T12:21:30.767Z,3.75
2022-09-15T12:24:07.880Z,3.33
2022-09-15T12:26:40.793Z,4.30
2022-09-15T12:29:34.997Z,4.45
2022-09-15T12:32:23.888Z,5.32
2022-09-15T12:35:13.386Z,3.47
2022-09-15T12:37:45.784Z,4.05
2022-09-15T12:40:37.742Z,5.65
2022-09-15T12:43:21.511Z,5.90
2022-09-15T12:46:00.357Z,4.90
2022-09-15T12:48:34.656Z,6.32
2022-09-15T12:51:08.754Z,5.97
2022-09-15T12:53:46.982Z,4.53
2022-09-15T12:56:26.346Z,6.25
2022-09-15T12:59:05.933Z,6.05
2022-09-15T13:01:49.369Z,5.55
2022-09-15T13:04:57.730Z,6.20
2022-09-15T13:07:39.395Z,5.22
2022-09-15T13:10:28.524Z,7.28
2022-09-15T13:13:07.207Z,5.65
2022-09-15T13:15:38.365Z,6.60
2022-09-15T13:18:07.880Z,5.47
2022-09-15T13:20:42.205Z,5.22
2022-09-15T13:23:15.225Z,3.95
2022-09-15T13:25:47.164Z,5.05
2022-09-15T13:28:17.587Z,6.20
2022-09-15T13:30:59.706Z,4.00
2022-09-15T13:39:50.270Z,5.75
2022-09-15T13:42:31.729Z,3.92
2022-09-15T13:45:26.344Z,3.85
2022-09-15T13:48:12.275Z,5.63
2022-09-15T13:50:46.511Z,6.95
2022-09-15T13:53:35.129Z,5.32
2022-09-15T13:56:08.460Z,5.53
2022-09-15T14:01:26.473Z,4.07
2022-09-15T14:03:58.482Z,4.15
2022-09-15T14:06:30.442Z,4.78
2022-09-15T14:09:05.662Z,4.78
2022-09-15T14:11:36.596Z,6.68
2022-09-15T14:14:10.852Z,4.60
2022-09-15T14:16:41.085Z,4.03
2022-09-15T14:19:33.804Z,5.72
2022-09-15T14:22:03.648Z,5.68
2022-09-15T14:24:34.129Z,3.65
2022-09-15T14:27:10.210Z,6.07
2022-09-15T14:29:42.863Z,5.82
2022-09-15T14:32:15.723Z,3.85
2022-09-15T14:34:45.852Z,4.15
2022-09-15T14:37:21.582Z,4.70
2022-09-15T14:39:56.704Z,4.70
2022-09-15T14:42:30.790Z,5.45
2022-09-15T14:48:03.497Z,4.90
2022-09-15T14:50:33.690Z,5.95
2022-09-15T14:53:05.544Z,5.07
2022-09-15T14:55:38.750Z,3.80
2022-09-15T14:58:13.965Z,4.45
2022-09-15T15:00:51.707Z,3.00
2022-09-15T15:03:28.144Z,3.83
2022-09-15T15:06:02.928Z,4.63
2022-09-15T15:08:42.201Z,3.58
2022-09-15T15:11:16.824Z,4.05
2022-09-15T15:13:48.427Z,4.38
2022-09-15T15:16:23.274Z,5.25
2022-09-15T15:18:52.222Z,7.68
2022-09-15T15:21:38.450Z,5.72
2022-09-15T15:24:18.531Z,4.40
2022-09-15T15:26:50.295Z,4.68
2022-09-15T15:29:43.212Z,2.58
2022-09-15T15:32:17.599Z,2.85
2022-09-15T15:34:51.015Z,2.10
2022-09-15T15:37:28.196Z,3.72
2022-09-15T15:39:58.319Z,2.65
2022-09-15T15:42:29.794Z,2.70
2022-09-15T15:45:03.475Z,9.18
2022-09-15T15:47:36.479Z,3.60
2022-09-15T15:50:13.623Z,2.40
2022-09-15T15:52:43.827Z,2.45
2022-09-15T15:55:16.096Z,3.35
2022-09-15T15:57:47.889Z,5.22
2022-09-15T16:00:22.394Z,3.92
2022-09-15T16:02:51.886Z,3.42
2022-09-15T16:05:22.211Z,3.75
2022-09-15T16:07:53.080Z,6.03
2022-09-15T16:10:24.221Z,3.63
2022-09-15T16:12:54.212Z,4.55
2022-09-15T16:15:23.007Z,3.88
2022-09-15T16:17:51.860Z,5.85
2022-09-15T16:20:20.907Z,4.85
2022-09-15T16:22:49.415Z,6.10
2022-09-15T16:25:22.846Z,4.45
2022-09-15T16:27:51.252Z,3.78
2022-09-15T16:30:21.028Z,5.85
2022-09-15T16:32:49.432Z,4.22
2022-09-15T16:35:26.109Z,9.65
2022-09-15T16:37:54.564Z,8.40
2022-09-15T16:40:22.973Z,6.82
2022-09-15T16:42:51.443Z,5.63
2022-09-15T16:45:25.953Z,8.90
2022-09-15T16:47:54.365Z,8.10
2022-09-15T16:50:22.764Z,4.85
2022-09-15T16:52:51.795Z,5.78
2022-09-15T16:55:31.400Z,4.15
2022-09-15T16:58:01.139Z,6.18
2022-09-15T17:00:32.875Z,4.50
2022-09-15T17:03:01.546Z,6.32
2022-09-15T17:05:33.897Z,3.70
2022-09-15T17:08:03.107Z,5.15
2022-09-15T17:10:31.633Z,7.13
2022-09-15T17:13:00.338Z,4.95
2022-09-15T17:15:31.954Z,4.97
2022-09-15T17:18:00.335Z,4.97
2022-09-15T17:20:29.035Z,3.83
2022-09-15T17:22:57.955Z,4.55
2022-09-15T17:25:29.399Z,6.05
2022-09-15T17:27:58.792Z,4.47
2022-09-15T17:30:31.636Z,5.38
2022-09-15T17:33:04.649Z,5.70
2022-09-15T17:35:35.274Z,5.88
2022-09-15T17:38:04.263Z,4.20
2022-09-15T17:40:33.788Z,4.70
2022-09-15T17:43:02.570Z,4.85
2022-09-15T17:45:35.763Z,9.02
2022-09-15T17:48:05.560Z,4.60
2022-09-15T17:50:35.896Z,4.43
2022-09-15T17:53:04.451Z,3.63
2022-09-15T17:55:34.384Z,4.03
2022-09-15T17:58:03.925Z,4.22
2022-09-15T18:00:35.938Z,4.28
2022-09-15T18:03:17.174Z,4.88
2022-09-15T18:05:45.840Z,9.98
2022-09-15T18:08:14.500Z,7.50
2022-09-15T18:10:42.912Z,6.90
2022-09-15T18:13:15.013Z,6.10
2022-09-15T18:15:45.053Z,8.23
2022-09-15T18:18:15.167Z,7.22
2022-09-15T18:20:44.202Z,9.48
2022-09-15T18:23:17.621Z,7.40
2022-09-15T18:25:47.086Z,8.65
2022-09-15T18:28:16.388Z,7.90
2022-09-15T18:30:48.772Z,9.27
2022-09-15T18:33:19.920Z,11.95
2022-09-15T18:35:49.430Z,6.28
2022-09-15T18:38:18.859Z,7.85
2022-09-15T18:40:50.818Z,7.38
2022-09-15T18:43:19.288Z,8.40
2022-09-15T18:45:50.488Z,9.88
2022-09-15T18:48:19.680Z,6.93
2022-09-15T18:50:48.225Z,6.45
2022-09-15T18:53:16.739Z,7.50
2022-09-15T18:55:45.247Z,14.70
2022-09-15T18:58:14.069Z,8.25
2022-09-15T19:00:42.723Z,6.35
2022-09-15T19:03:14.300Z,11.95
2022-09-15T19:05:43.067Z,9.13
2022-09-15T19:08:11.599Z,7.88
2022-09-15T19:10:43.142Z,11.40
2022-09-15T19:13:14.295Z,10.10
2022-09-15T19:15:44.030Z,9.27
2022-09-15T19:18:14.106Z,10.65
2022-09-15T19:20:42.576Z,9.48
2022-09-15T19:23:11.281Z,12.68
2022-09-15T19:25:42.792Z,11.82
2022-09-15T19:28:11.554Z,11.52
2022-09-15T19:30:40.238Z,8.07
2022-09-15T19:33:08.650Z,13.82
2022-09-15T19:35:42.899Z,12.45
2022-09-15T19:38:11.368Z,14.30
2022-09-15T19:40:39.966Z,13.43
2022-09-15T19:43:08.383Z,12.93
2022-09-15T19:45:36.702Z,15.15
2022-09-15T19:48:05.389Z,11.23
2022-09-15T19:50:33.879Z,19.10
2022-09-15T19:53:03.730Z,14.05
2022-09-15T19:55:34.459Z,13.65
2022-09-15T19:58:02.924Z,9.90
2022-09-15T20:00:31.613Z,12.90
2022-09-15T20:03:00.291Z,12.38
2022-09-15T20:05:28.670Z,12.30
2022-09-15T20:07:59.181Z,13.85
2022-09-15T20:10:28.947Z,10.07
2022-09-15T20:12:57.330Z,16.55
2022-09-15T20:15:25.743Z,12.63
2022-09-15T20:17:54.309Z,11.00
2022-09-15T20:20:22.615Z,13.27
2022-09-15T20:22:51.195Z,14.20
2022-09-15T20:25:20.092Z,11.75
2022-09-15T20:27:50.005Z,15.93
2022-09-15T20:30:21.793Z,11.43
2022-09-15T20:32:50.420Z,14.05
2022-09-15T20:35:18.944Z,14.88
2022-09-15T20:37:47.508Z,14.80
2022-09-15T20:40:16.293Z,15.00
2022-09-15T20:42:44.925Z,20.35
2022-09-15T20:45:15.583Z,21.65
2022-09-15T20:47:44.027Z,19.25
2022-09-15T20:50:12.536Z,22.88
2022-09-15T20:52:41.048Z,22.35
2022-09-15T20:55:10.474Z,16.77
2022-09-15T20:57:39.481Z,19.05
2022-09-15T21:00:10.209Z,16.92
2022-09-15T21:02:40.278Z,17.50
2022-09-15T21:05:09.515Z,19.25
2022-09-15T21:07:38.090Z,27.45
2022-09-15T21:10:08.223Z,20.75
2022-09-15T21:12:36.703Z,21.80
2022-09-15T21:15:05.869Z,20.77
2022-09-15T21:17:34.442Z,24.83
2022-09-15T21:20:04.869Z,20.42
2022-09-15T21:22:33.336Z,18.85
2022-09-15T21:25:01.769Z,19.30
2022-09-15T21:27:32.125Z,23.38
2022-09-15T21:30:00.680Z,23.73
2022-09-15T21:32:29.934Z,14.23
2022-09-15T21:34:58.401Z,21.95
2022-09-15T21:37:28.776Z,21.42
2022-09-15T21:39:57.358Z,17.30
2022-09-15T21:42:26.184Z,21.25
2022-09-15T21:44:54.788Z,20.00
2022-09-15T21:47:23.409Z,18.95
2022-09-15T21:49:52.611Z,15.15
2022-09-15T21:52:21.615Z,15.48
2022-09-15T21:54:52.138Z,14.10
2022-09-15T21:57:20.813Z,15.02
2022-09-15T21:59:49.221Z,11.40
2022-09-15T22:02:19.620Z,11.30
2022-09-15T22:04:48.454Z,14.13
2022-09-15T22:07:19.773Z,10.70
2022-09-15T22:09:48.456Z,12.20
2022-09-15T22:12:18.435Z,10.95
2022-09-15T22:14:46.949Z,9.85
2022-09-15T22:17:15.956Z,9.43
2022-09-15T22:19:44.567Z,9.55
2022-09-15T22:22:13.118Z,12.40
2022-09-15T22:24:41.696Z,11.35
2022-09-15T22:27:10.214Z,8.48
2022-09-15T22:29:40.078Z,9.60
2022-09-15T22:32:08.658Z,10.63
2022-09-15T22:34:37.107Z,11.23
2022-09-15T22:37:05.558Z,10.48
2022-09-15T22:39:57.508Z,9.27
2022-09-15T22:42:22.694Z,12.52
2022-09-15T22:44:52.811Z,8.48
2022-09-15T22:47:21.541Z,9.52
2022-09-15T22:49:49.960Z,8.82
2022-09-15T22:52:18.541Z,11.00
2022-09-15T22:54:47.256Z,9.23
2022-09-15T22:57:15.745Z,9.73
2022-09-15T22:59:44.292Z,12.18
2022-09-15T23:02:14.248Z,10.18
2022-09-15T23:04:42.923Z,12.15
2022-09-15T23:07:11.364Z,10.95
2022-09-15T23:09:40.344Z,12.20
2022-09-15T23:12:10.116Z,11.45
2022-09-15T23:14:38.551Z,12.27
2022-09-15T23:17:07.135Z,12.50
2022-09-15T23:19:37.017Z,21.70
2022-09-15T23:22:05.515Z,18.00
2022-09-15T23:24:34.751Z,11.48
2022-09-15T23:27:04.156Z,10.27
2022-09-15T23:29:32.621Z,19.02
2022-09-15T23:32:01.288Z,18.33
2022-09-15T23:34:29.860Z,19.02
2022-09-15T23:36:59.881Z,9.25
2022-09-15T23:39:28.579Z,11.07
2022-09-15T23:41:57.064Z,11.85
2022-09-15T23:44:25.602Z,10.70
2022-09-15T23:46:54.294Z,9.02
2022-09-15T23:49:22.899Z,7.82
2022-09-15T23:51:51.375Z,8.32
2022-09-15T23:54:21.295Z,9.80
2022-09-15T23:56:49.818Z,11.95
2022-09-15T23:59:18.437Z,9.48
